createdAt,value
2022-08-31T05:40:55.486Z,99345.84
2022-08-31T05:43:26.131Z,99329.44
2022-08-31T05:45:55.211Z,99332.78
2022-08-31T05:58:04.008Z,99328.88
2022-08-31T06:55:23.819Z,99351.91
2022-08-31T06:58:16.170Z,99341.19
2022-08-31T07:01:10.326Z,99354.19
2022-08-31T07:03:58.049Z,99325.81
2022-08-31T07:06:27.337Z,99324.38
2022-08-31T07:08:57.452Z,99324.03
2022-08-31T07:11:56.405Z,99348.44
2022-08-31T07:14:28.422Z,99319.00
2022-08-31T07:16:58.746Z,99327.06
2022-08-31T07:19:30.862Z,99329.19
2022-08-31T07:22:01.202Z,99335.72
2022-08-31T07:24:52.060Z,99332.78
2022-08-31T07:42:35.336Z,99310.91
2022-08-31T07:45:11.671Z,99308.66
2022-08-31T07:47:45.871Z,99315.06
2022-08-31T07:50:17.273Z,99318.78
2022-08-31T07:53:01.256Z,99308.25
2022-08-31T07:55:45.922Z,99308.66
2022-08-31T07:58:30.891Z,99323.53
2022-08-31T08:01:04.380Z,99327.22
2022-08-31T08:03:31.569Z,99303.88
2022-08-31T08:06:37.482Z,99290.72
2022-08-31T08:09:30.739Z,99285.88
2022-08-31T08:55:00.040Z,99270.66
2022-08-31T08:57:29.969Z,99272.53
2022-08-31T09:00:12.848Z,99269.22
2022-08-31T09:03:04.499Z,99290.84
2022-08-31T09:06:12.610Z,99289.47
2022-08-31T10:51:29.380Z,99227.19
2022-08-31T10:54:17.103Z,99228.44
2022-08-31T10:57:00.780Z,99200.75
2022-08-31T11:00:09.632Z,99220.53
2022-08-31T11:03:07.370Z,99196.72
2022-08-31T11:05:45.502Z,99198.06
2022-08-31T11:08:30.449Z,99207.50
2022-08-31T11:10:58.367Z,99198.34
2022-08-31T11:13:36.870Z,99209.09
2022-08-31T11:20:25.730Z,99186.06
2022-08-31T12:33:54.055Z,99223.56
2022-08-31T12:48:40.029Z,99225.84
2022-08-31T13:11:44.570Z,99202.88
2022-08-31T13:14:21.039Z,99200.00
2022-08-31T13:16:51.488Z,99205.38
2022-08-31T13:19:25.811Z,99192.63
2022-08-31T13:22:01.310Z,99198.66
2022-08-31T13:24:41.463Z,99204.06
2022-08-31T13:27:23.070Z,99213.66
2022-08-31T13:29:50.866Z,99221.47
2022-08-31T13:32:33.089Z,99217.84
2022-08-31T13:35:10.125Z,99213.44
2022-08-31T13:37:43.723Z,99206.28
2022-08-31T13:40:12.863Z,99192.66
2022-08-31T13:42:48.483Z,99203.75
2022-08-31T13:45:58.002Z,99190.66
2022-08-31T13:48:35.735Z,99193.41
2022-08-31T13:51:13.237Z,99201.81
2022-08-31T13:54:06.231Z,99192.00
2022-08-31T13:56:59.091Z,99178.84
2022-08-31T13:59:32.811Z,99160.78
2022-08-31T14:02:20.835Z,99155.59
2022-08-31T14:04:58.354Z,99172.81
2022-08-31T14:18:59.262Z,99171.22
2022-08-31T14:21:29.622Z,99169.97
2022-08-31T14:24:02.257Z,99199.47
2022-08-31T14:26:38.270Z,99183.75
2022-08-31T14:29:11.729Z,99198.13
2022-08-31T14:31:43.039Z,99203.50
2022-08-31T14:34:32.669Z,99180.94
2022-08-31T14:37:09.064Z,99183.25
2022-08-31T14:39:45.691Z,99190.41
2022-08-31T14:42:24.915Z,99203.16
2022-08-31T14:45:18.877Z,99198.22
2022-08-31T14:47:51.290Z,99181.03
2022-08-31T14:50:23.685Z,99195.34
2022-08-31T14:52:55.700Z,99170.53
2022-08-31T14:55:24.464Z,99183.22
2022-08-31T14:57:59.042Z,99175.63
2022-08-31T15:00:27.162Z,99158.81
2022-08-31T15:02:54.512Z,99154.50
2022-08-31T15:05:25.889Z,99164.19
2022-08-31T15:07:54.608Z,99178.09
2022-08-31T15:10:24.418Z,99193.50
2022-08-31T15:12:52.669Z,99175.13
2022-08-31T15:15:21.414Z,99163.94
2022-08-31T15:27:44.858Z,99166.53
2022-08-31T15:34:30.625Z,99205.63
2022-08-31T15:43:26.545Z,99187.63
2022-08-31T15:49:26.584Z,99193.16
2022-08-31T15:55:35.469Z,99178.81
2022-08-31T15:58:04.513Z,99171.69
2022-08-31T16:00:35.562Z,99170.06
2022-08-31T16:03:04.602Z,99189.25
2022-08-31T16:05:36.050Z,99192.72
2022-08-31T16:08:06.227Z,99169.66
2022-08-31T16:10:33.881Z,99200.63
2022-08-31T16:13:06.579Z,99174.53
2022-08-31T16:18:03.214Z,99181.19
2022-08-31T16:20:30.484Z,99185.72
2022-08-31T16:22:59.005Z,99203.66
2022-08-31T16:25:29.146Z,99179.25
2022-08-31T16:27:57.938Z,99195.34
2022-08-31T16:42:08.994Z,99225.56
2022-08-31T16:47:19.731Z,99222.09
2022-08-31T16:49:47.900Z,99214.63
2022-08-31T16:52:27.722Z,99204.44
